createdAt,value
2017-06-23T00:00:23.189Z,9.63
2017-06-23T00:02:57.133Z,9.47
2017-06-23T00:05:33.721Z,10.07
2017-06-23T00:08:07.834Z,9.60
2017-06-23T00:10:41.039Z,10.10
2017-06-23T00:13:17.009Z,10.00
2017-06-23T00:15:53.439Z,9.80
2017-06-23T00:18:27.948Z,9.77
2017-06-23T00:21:01.765Z,10.17
2017-06-23T00:23:36.889Z,10.80
2017-06-23T00:26:10.400Z,9.80
2017-06-23T00:28:45.435Z,10.60
2017-06-23T00:31:19.797Z,9.70
2017-06-23T00:33:49.869Z,10.70
2017-06-23T00:36:24.694Z,12.47
2017-06-23T00:39:00.342Z,11.80
2017-06-23T00:41:33.676Z,12.97
2017-06-23T00:44:09.593Z,11.97
2017-06-23T00:46:43.611Z,11.47
2017-06-23T00:49:18.123Z,11.40
2017-06-23T00:51:54.698Z,11.83
2017-06-23T00:54:30.520Z,11.83
2017-06-23T00:57:08.488Z,12.70
2017-06-23T00:59:41.509Z,12.70
2017-06-23T01:02:14.932Z,12.60
2017-06-23T01:04:49.865Z,13.10
2017-06-23T01:07:24.074Z,14.03
2017-06-23T01:09:58.899Z,12.00
2017-06-23T01:12:34.303Z,13.83
2017-06-23T01:15:09.482Z,13.47
2017-06-23T01:17:46.355Z,13.17
2017-06-23T01:20:22.107Z,13.33
2017-06-23T01:22:56.012Z,12.60
2017-06-23T01:25:29.001Z,12.30
2017-06-23T01:28:03.121Z,14.00
2017-06-23T01:30:39.070Z,12.30
2017-06-23T01:33:15.535Z,12.83
2017-06-23T01:35:52.000Z,11.50
2017-06-23T01:38:26.112Z,11.87
2017-06-23T01:41:02.577Z,11.90
2017-06-23T01:43:37.937Z,12.70
2017-06-23T01:46:13.905Z,11.67
2017-06-23T02:06:04.786Z,10.17
2017-06-23T02:08:36.640Z,9.73
2017-06-23T02:11:13.609Z,10.00
2017-06-23T02:13:52.577Z,9.10
2017-06-23T02:16:27.989Z,10.27
2017-06-23T02:19:02.518Z,10.77
2017-06-23T02:21:37.489Z,9.00
2017-06-23T02:24:15.453Z,10.03
2017-06-23T02:26:48.632Z,9.10
2017-06-23T02:29:24.181Z,8.87
2017-06-23T02:31:58.903Z,10.57
2017-06-23T02:34:35.579Z,10.00
2017-06-23T02:37:10.097Z,9.90
2017-06-23T02:39:45.852Z,8.90
2017-06-23T02:42:21.237Z,9.30
2017-06-23T02:44:56.019Z,9.43
2017-06-23T02:47:33.174Z,9.10
2017-06-23T02:50:08.746Z,9.07
2017-06-23T02:52:42.656Z,9.43
2017-06-23T02:55:17.082Z,9.67
2017-06-23T02:57:52.073Z,9.93
2017-06-23T03:00:26.022Z,8.80
2017-06-23T03:02:58.795Z,9.10
2017-06-23T03:05:34.747Z,9.30
2017-06-23T03:08:08.123Z,8.40
2017-06-23T03:10:46.896Z,9.67
2017-06-23T03:13:30.863Z,9.17
2017-06-23T03:16:06.145Z,8.50
2017-06-23T03:18:41.803Z,8.97
2017-06-23T03:21:17.033Z,7.87
2017-06-23T03:23:49.508Z,8.03
2017-06-23T03:26:22.293Z,7.90
2017-06-23T03:28:55.987Z,8.03
2017-06-23T03:31:31.327Z,9.27
2017-06-23T03:34:08.925Z,7.83
2017-06-23T03:36:44.649Z,9.23
2017-06-23T03:39:19.557Z,8.03
2017-06-23T03:41:52.383Z,8.40
2017-06-23T03:44:30.286Z,7.10
2017-06-23T03:47:06.463Z,7.90
2017-06-23T03:49:42.197Z,9.10
2017-06-23T03:52:18.400Z,8.50
2017-06-23T03:54:53.392Z,7.90
2017-06-23T03:57:25.339Z,9.20
2017-06-23T04:00:01.097Z,7.47
2017-06-23T04:02:36.237Z,8.30
2017-06-23T04:05:12.700Z,8.07
2017-06-23T04:07:47.222Z,8.10
2017-06-23T04:10:24.184Z,8.30
2017-06-23T04:13:00.055Z,7.80
2017-06-23T04:15:36.122Z,8.57
2017-06-23T04:18:12.884Z,7.73
2017-06-23T04:20:49.060Z,8.13
2017-06-23T04:23:23.466Z,7.93
2017-06-23T04:25:58.804Z,8.27
2017-06-23T04:28:34.349Z,8.97
2017-06-23T04:31:09.968Z,8.37
2017-06-23T04:33:42.370Z,7.80
2017-06-23T04:36:19.454Z,8.30
2017-06-23T04:38:53.360Z,7.43
2017-06-23T04:41:27.814Z,8.03
2017-06-23T04:43:59.737Z,9.77
2017-06-23T04:46:36.207Z,8.53
2017-06-23T04:49:10.933Z,8.53
2017-06-23T04:51:48.420Z,7.60
2017-06-23T04:54:22.534Z,8.10
2017-06-23T04:56:56.630Z,8.53
2017-06-23T04:59:34.546Z,7.03
2017-06-23T05:02:07.122Z,8.13
2017-06-23T05:04:42.537Z,8.13
2017-06-23T05:07:18.317Z,8.60
2017-06-23T05:09:55.483Z,7.50
2017-06-23T05:12:32.997Z,7.33
2017-06-23T05:15:02.806Z,7.70
2017-06-23T05:17:36.384Z,8.30
2017-06-23T05:20:11.843Z,8.27
2017-06-23T05:22:47.323Z,8.10
2017-06-23T05:25:23.292Z,8.83
2017-06-23T05:27:57.558Z,8.83
2017-06-23T05:30:29.637Z,8.63
2017-06-23T05:33:06.203Z,9.10
2017-06-23T05:35:41.172Z,7.87
2017-06-23T05:38:17.491Z,8.60
2017-06-23T05:40:53.030Z,7.97
2017-06-23T05:43:27.859Z,8.17
2017-06-23T05:46:01.256Z,7.80
2017-06-23T05:48:34.017Z,7.77
2017-06-23T05:51:08.992Z,7.77
2017-06-23T05:53:43.596Z,8.63
2017-06-23T05:56:19.146Z,8.40
2017-06-23T05:58:53.896Z,8.90
2017-06-23T06:01:29.863Z,8.90
2017-06-23T06:04:04.342Z,7.60
2017-06-23T06:06:38.452Z,7.90
2017-06-23T06:09:12.787Z,8.73
2017-06-23T06:11:47.289Z,8.87
2017-06-23T06:14:25.189Z,10.13
2017-06-23T06:17:00.227Z,11.47
2017-06-23T06:19:33.410Z,11.57
2017-06-23T06:22:06.092Z,12.33
2017-06-23T06:24:42.966Z,11.20
2017-06-23T06:27:15.237Z,11.57
2017-06-23T06:29:53.524Z,10.73
2017-06-23T06:32:27.351Z,13.10
2017-06-23T06:35:05.463Z,10.90
2017-06-23T06:37:40.433Z,13.00
2017-06-23T06:40:14.403Z,12.80
2017-06-23T06:42:47.370Z,12.33
2017-06-23T06:45:22.822Z,13.60
2017-06-23T06:47:57.860Z,13.33
2017-06-23T06:50:36.065Z,13.43
2017-06-23T06:53:12.247Z,14.27
2017-06-23T06:55:49.217Z,14.33
2017-06-23T06:58:27.200Z,13.33
2017-06-23T07:01:01.115Z,14.53
2017-06-23T07:03:34.721Z,14.40
2017-06-23T07:06:10.973Z,13.63
2017-06-23T07:08:48.468Z,12.60
2017-06-23T07:11:23.503Z,14.23
2017-06-23T07:13:58.636Z,13.60
2017-06-23T07:16:31.622Z,14.90
2017-06-23T07:19:09.741Z,14.50
2017-06-23T07:21:46.400Z,13.60
2017-06-23T07:24:22.876Z,14.70
2017-06-23T07:26:57.849Z,12.97
2017-06-23T07:29:33.141Z,14.10
2017-06-23T07:32:08.274Z,13.30
2017-06-23T07:34:44.770Z,14.00
2017-06-23T07:37:20.181Z,13.90
2017-06-23T07:39:55.693Z,13.30
2017-06-23T07:42:34.661Z,14.30
2017-06-23T07:45:07.123Z,12.30
2017-06-23T07:47:38.653Z,12.23
2017-06-23T07:50:13.571Z,11.50
2017-06-23T07:52:48.233Z,14.17
2017-06-23T07:55:21.514Z,11.50
2017-06-23T07:57:53.530Z,13.17
2017-06-23T08:00:25.454Z,15.53
2017-06-23T08:02:59.866Z,12.80
2017-06-23T08:05:33.678Z,12.20
2017-06-23T08:08:09.116Z,10.93
2017-06-23T08:10:46.331Z,10.73
2017-06-23T08:13:19.897Z,11.17
2017-06-23T08:15:53.909Z,10.67
2017-06-23T08:18:28.020Z,11.90
2017-06-23T08:21:05.212Z,12.07
2017-06-23T08:23:39.227Z,11.03
2017-06-23T08:26:10.453Z,11.70
2017-06-23T08:28:47.850Z,12.37
2017-06-23T08:31:23.098Z,10.27
2017-06-23T08:33:57.602Z,11.70
2017-06-23T08:36:31.031Z,10.83
2017-06-23T08:39:04.596Z,11.17
2017-06-23T08:41:40.976Z,12.20
2017-06-23T08:44:16.941Z,10.70
2017-06-23T08:46:50.909Z,11.20
2017-06-23T08:49:24.427Z,9.77
2017-06-23T08:52:00.894Z,11.03
2017-06-23T08:54:34.902Z,12.33
2017-06-23T08:57:06.246Z,13.30
2017-06-23T08:59:40.566Z,11.73
2017-06-23T09:02:12.833Z,11.77
2017-06-23T09:04:47.698Z,10.73
2017-06-23T09:07:24.665Z,9.40
2017-06-23T09:09:57.930Z,11.40
2017-06-23T09:35:02.336Z,9.90
2017-06-23T09:37:33.633Z,9.60
2017-06-23T09:40:07.852Z,9.53
2017-06-23T09:42:40.836Z,9.93
2017-06-23T09:45:13.716Z,9.53
2017-06-23T09:47:47.731Z,10.03
2017-06-23T09:50:22.563Z,8.80
2017-06-23T09:52:56.470Z,9.60
2017-06-23T09:55:31.093Z,10.00
2017-06-23T09:58:06.059Z,9.77
2017-06-23T10:00:39.082Z,10.30
2017-06-23T10:03:11.990Z,9.33
2017-06-23T10:05:49.971Z,10.70
2017-06-23T10:08:25.434Z,9.50
2017-06-23T10:11:01.699Z,9.90
2017-06-23T10:13:35.396Z,10.70
2017-06-23T10:16:08.855Z,9.50
2017-06-23T10:18:40.445Z,8.40
2017-06-23T10:21:12.308Z,9.67
2017-06-23T10:23:43.551Z,9.17
2017-06-23T10:26:19.732Z,8.00
2017-06-23T10:28:55.254Z,8.10
2017-06-23T10:31:31.697Z,8.70
2017-06-23T10:34:09.007Z,7.70
2017-06-23T10:36:42.200Z,7.87
2017-06-23T10:39:18.577Z,7.10
2017-06-23T10:41:56.547Z,7.50
2017-06-23T10:44:34.158Z,7.47
2017-06-23T10:47:07.860Z,9.83
2017-06-23T10:49:43.454Z,8.27
2017-06-23T10:52:17.670Z,8.40
2017-06-23T10:54:51.413Z,7.60
2017-06-23T10:57:27.364Z,7.87
2017-06-23T11:00:01.329Z,8.57
2017-06-23T11:02:32.534Z,7.07
2017-06-23T11:05:06.647Z,6.50
2017-06-23T11:07:41.240Z,7.80
2017-06-23T11:10:16.210Z,8.40
2017-06-23T11:12:53.176Z,8.47
2017-06-23T11:15:28.148Z,8.97
2017-06-23T11:18:04.475Z,7.60
2017-06-23T11:20:40.535Z,7.93
2017-06-23T11:23:17.611Z,7.47
2017-06-23T11:25:51.624Z,7.37
2017-06-23T11:28:29.993Z,7.70
2017-06-23T11:31:05.578Z,7.60
2017-06-23T11:33:40.931Z,7.20
2017-06-23T11:36:16.901Z,7.33
2017-06-23T11:38:53.869Z,7.20
2017-06-23T11:41:27.150Z,7.30
2017-06-23T11:43:59.808Z,7.00
2017-06-23T11:46:37.314Z,6.20
2017-06-23T11:49:12.659Z,7.37
2017-06-23T11:51:51.717Z,6.83
2017-06-23T11:54:24.684Z,6.57
2017-06-23T11:56:58.653Z,6.90
2017-06-23T11:59:31.657Z,6.97
2017-06-23T12:02:06.290Z,5.93
2017-06-23T12:04:42.035Z,6.60
2017-06-23T12:07:12.767Z,6.80
2017-06-23T12:09:48.501Z,7.63
2017-06-23T12:12:21.606Z,6.37
2017-06-23T12:14:56.028Z,6.77
2017-06-23T12:17:32.184Z,5.97
2017-06-23T12:20:07.016Z,5.93
2017-06-23T12:22:39.998Z,6.40
2017-06-23T12:25:17.902Z,6.70
2017-06-23T12:27:51.712Z,5.77
2017-06-23T12:30:28.255Z,6.93
2017-06-23T12:33:01.771Z,6.50
2017-06-23T12:35:36.096Z,7.20
2017-06-23T12:38:12.163Z,5.70
2017-06-23T12:40:49.140Z,6.47
2017-06-23T12:43:21.802Z,5.70
2017-06-23T12:46:00.071Z,6.20
2017-06-23T12:48:33.610Z,6.10
2017-06-23T13:08:27.805Z,6.27
2017-06-23T13:11:03.446Z,6.40
2017-06-23T13:13:38.482Z,6.73
2017-06-23T13:16:14.712Z,6.20
2017-06-23T13:18:52.681Z,6.70
2017-06-23T13:21:25.014Z,5.90
2017-06-23T13:23:57.401Z,6.20
2017-06-23T13:26:30.785Z,6.13
2017-06-23T13:29:05.609Z,6.70
2017-06-23T13:31:40.639Z,7.67
2017-06-23T13:34:15.774Z,7.17
2017-06-23T13:36:49.691Z,6.00
2017-06-23T13:39:21.642Z,7.50
2017-06-23T13:41:56.585Z,6.27
2017-06-23T13:44:29.375Z,6.60
2017-06-23T13:47:01.730Z,6.90
2017-06-23T13:49:36.324Z,7.13
2017-06-23T13:52:11.286Z,6.10
2017-06-23T13:54:46.218Z,5.90
2017-06-23T13:57:18.683Z,5.90
2017-06-23T13:59:55.191Z,6.03
2017-06-23T14:02:31.108Z,6.37
2017-06-23T14:05:05.129Z,6.83
2017-06-23T14:07:38.305Z,5.80
2017-06-23T14:10:12.625Z,7.03
2017-06-23T14:12:44.071Z,6.23
2017-06-23T14:15:17.779Z,6.07
2017-06-23T14:17:51.052Z,5.93
2017-06-23T14:20:27.953Z,6.70
2017-06-23T14:23:03.080Z,6.20
2017-06-23T14:25:37.406Z,6.50
2017-06-23T14:28:11.714Z,6.20
2017-06-23T14:30:48.835Z,6.00
2017-06-23T14:33:20.041Z,5.90
2017-06-23T14:35:54.156Z,6.50
2017-06-23T14:38:28.743Z,5.57
2017-06-23T14:41:01.251Z,6.50
2017-06-23T14:43:34.542Z,6.20
2017-06-23T14:46:08.141Z,6.40
2017-06-23T14:48:40.210Z,5.63
2017-06-23T14:51:10.730Z,5.67
2017-06-23T15:11:00.114Z,5.77
2017-06-23T15:13:34.340Z,5.60
2017-06-23T15:16:08.306Z,5.77
2017-06-23T15:18:39.355Z,5.90
2017-06-23T15:21:12.152Z,5.73
2017-06-23T15:23:47.213Z,5.83
2017-06-23T15:26:19.655Z,6.00
2017-06-23T15:28:56.152Z,6.47
2017-06-23T15:31:29.423Z,5.70
2017-06-23T15:34:04.550Z,5.60
2017-06-23T15:36:37.928Z,5.93
2017-06-23T15:39:12.679Z,5.63
2017-06-23T15:41:44.434Z,5.90
2017-06-23T15:44:21.967Z,6.10
2017-06-23T15:46:53.164Z,5.50
2017-06-23T15:49:27.906Z,5.20
2017-06-23T15:52:04.887Z,5.30
2017-06-23T15:54:40.845Z,4.87
2017-06-23T15:57:13.893Z,5.40
2017-06-23T15:59:49.784Z,5.53
2017-06-23T16:02:25.752Z,4.73
2017-06-23T16:04:59.118Z,5.07
2017-06-23T16:07:31.176Z,5.10
2017-06-23T16:10:07.704Z,5.50
2017-06-23T16:12:40.651Z,6.40
2017-06-23T16:15:16.382Z,5.63
2017-06-23T16:17:54.572Z,4.93
2017-06-23T16:20:29.109Z,5.10
2017-06-23T16:23:03.940Z,5.67
2017-06-23T16:25:41.433Z,5.33
2017-06-23T16:28:16.447Z,5.20
2017-06-23T16:30:50.267Z,5.40
2017-06-23T16:33:22.330Z,5.27
2017-06-23T16:35:58.354Z,5.87
2017-06-23T16:38:30.324Z,5.10
2017-06-23T16:41:05.314Z,5.77
2017-06-23T16:43:38.578Z,5.40
2017-06-23T16:46:10.846Z,4.90
2017-06-23T16:48:44.789Z,5.73
2017-06-23T16:51:19.176Z,5.17
2017-06-23T16:53:55.145Z,5.10
2017-06-23T16:56:30.473Z,5.20
2017-06-23T16:59:08.060Z,4.23
2017-06-23T17:01:42.056Z,5.10
2017-06-23T17:04:16.797Z,5.17
2017-06-23T17:06:50.989Z,4.73
2017-06-23T17:09:22.965Z,5.00
2017-06-23T17:11:58.930Z,5.00
2017-06-23T17:14:33.932Z,4.70
2017-06-23T17:17:11.548Z,5.20
2017-06-23T17:19:46.837Z,4.83
2017-06-23T17:22:20.290Z,5.20
2017-06-23T17:24:55.320Z,5.70
2017-06-23T17:27:29.533Z,5.23
2017-06-23T17:30:05.183Z,4.33
2017-06-23T17:32:39.687Z,4.87
2017-06-23T17:35:14.227Z,5.23
2017-06-23T17:37:48.626Z,5.37
2017-06-23T17:40:24.494Z,4.83
2017-06-23T17:43:00.247Z,5.30
2017-06-23T17:45:36.537Z,4.50
2017-06-23T17:48:12.502Z,5.53
2017-06-23T17:50:46.777Z,5.10
2017-06-23T17:53:23.444Z,5.20
2017-06-23T17:56:02.409Z,5.00
2017-06-23T17:58:38.414Z,4.90
2017-06-23T18:01:11.933Z,4.80
2017-06-23T18:03:48.318Z,4.40
2017-06-23T18:06:22.310Z,4.70
2017-06-23T18:08:54.676Z,5.17
2017-06-23T18:11:33.227Z,4.60
2017-06-23T18:14:08.529Z,5.10
2017-06-23T18:16:46.190Z,4.57
2017-06-23T18:19:22.132Z,3.97
2017-06-23T18:21:55.112Z,4.07
2017-06-23T18:24:27.740Z,4.07
2017-06-23T18:27:01.852Z,4.43
2017-06-23T18:29:36.788Z,3.80
2017-06-23T18:32:09.154Z,4.00
2017-06-23T18:34:42.968Z,4.70
2017-06-23T18:37:19.917Z,3.50
2017-06-23T18:39:55.790Z,4.30
2017-06-23T18:42:32.564Z,4.70
2017-06-23T18:45:07.393Z,3.60
2017-06-23T18:47:43.792Z,3.73
2017-06-23T18:50:17.359Z,4.20
2017-06-23T18:52:54.730Z,4.07
2017-06-23T18:55:30.802Z,4.10
2017-06-23T18:58:08.668Z,3.80
2017-06-23T19:00:44.635Z,3.80
2017-06-23T19:03:22.605Z,3.83
2017-06-23T19:05:55.575Z,3.73
2017-06-23T19:08:28.328Z,3.80
2017-06-23T19:11:06.517Z,4.43
2017-06-23T19:13:42.696Z,4.03
2017-06-23T19:16:19.459Z,3.60
2017-06-23T19:18:54.912Z,3.93
2017-06-23T19:21:30.973Z,4.40
2017-06-23T19:24:05.379Z,3.40
2017-06-23T19:26:40.329Z,3.63
2017-06-23T19:29:13.202Z,3.80
2017-06-23T19:31:49.157Z,3.90
2017-06-23T19:34:24.235Z,4.07
2017-06-23T19:37:00.863Z,4.33
2017-06-23T19:39:33.437Z,3.40
2017-06-23T19:42:07.142Z,3.40
2017-06-23T19:44:42.130Z,3.70
2017-06-23T19:47:17.718Z,4.20
2017-06-23T19:49:52.854Z,3.87
2017-06-23T19:52:29.524Z,3.90
2017-06-23T19:55:03.738Z,3.90
2017-06-23T19:57:37.545Z,3.80
2017-06-23T20:00:10.633Z,3.53
2017-06-23T20:02:44.848Z,3.07
2017-06-23T20:05:20.083Z,3.80
2017-06-23T20:07:54.506Z,3.73
2017-06-23T20:10:27.804Z,4.07
2017-06-23T20:13:00.777Z,3.50
2017-06-23T20:15:34.378Z,3.07
2017-06-23T20:18:08.724Z,3.67
2017-06-23T20:20:43.691Z,3.30
2017-06-23T20:23:18.865Z,3.90
2017-06-23T20:25:55.620Z,3.80
2017-06-23T20:28:29.239Z,4.10
2017-06-23T20:31:02.128Z,3.83
2017-06-23T20:33:36.646Z,4.10
2017-06-23T20:36:12.805Z,3.30
2017-06-23T20:38:47.431Z,4.10
2017-06-23T20:41:21.850Z,4.00
2017-06-23T20:43:57.407Z,4.10
2017-06-23T20:46:33.375Z,3.97
2017-06-23T20:49:06.345Z,3.80
2017-06-23T20:51:37.352Z,3.90
2017-06-23T20:54:26.283Z,3.60
2017-06-23T20:57:00.756Z,3.90
2017-06-23T20:59:38.041Z,3.73
2017-06-23T21:02:14.922Z,3.60
2017-06-23T21:04:50.054Z,3.77
2017-06-23T21:07:22.127Z,3.70
2017-06-23T21:09:58.106Z,4.00
2017-06-23T21:12:32.078Z,3.90
2017-06-23T21:15:07.317Z,3.97
2017-06-23T21:17:41.009Z,4.03
2017-06-23T21:20:17.976Z,3.80
2017-06-23T21:22:53.006Z,3.97
2017-06-23T21:25:27.911Z,4.50
2017-06-23T21:28:01.461Z,3.73
2017-06-23T21:30:38.230Z,4.30
2017-06-23T21:33:11.821Z,4.47
2017-06-23T21:35:50.788Z,3.80
2017-06-23T21:38:32.450Z,3.87
2017-06-23T21:41:21.723Z,3.73
2017-06-23T21:43:52.346Z,3.90
2017-06-23T21:46:28.408Z,4.07
2017-06-23T21:48:58.715Z,3.80
2017-06-23T21:51:34.603Z,3.90
2017-06-23T21:54:08.569Z,4.17
2017-06-23T21:56:40.663Z,3.90
2017-06-23T21:59:16.210Z,3.80
2017-06-23T22:01:47.033Z,4.00
2017-06-23T22:04:17.145Z,4.10
2017-06-23T22:06:52.420Z,4.30
2017-06-23T22:09:25.392Z,3.73
2017-06-23T22:12:01.374Z,3.83
2017-06-23T22:14:34.212Z,4.27
2017-06-23T22:17:08.301Z,3.40
2017-06-23T22:19:44.174Z,3.40
2017-06-23T22:22:19.236Z,3.27
2017-06-23T22:24:52.911Z,3.90
2017-06-23T22:27:26.408Z,4.00
2017-06-23T22:30:01.852Z,3.50
2017-06-23T22:32:37.806Z,3.90
2017-06-23T22:35:11.082Z,3.60
2017-06-23T22:37:44.052Z,3.93
2017-06-23T22:40:18.909Z,3.83
2017-06-23T22:42:54.661Z,3.50
2017-06-23T22:45:30.962Z,3.80
2017-06-23T22:48:07.927Z,3.30
2017-06-23T22:50:41.500Z,3.70
2017-06-23T22:53:18.792Z,3.60
2017-06-23T22:55:53.836Z,3.33
2017-06-23T22:58:31.804Z,3.60
2017-06-23T23:01:04.778Z,4.10
2017-06-23T23:03:39.540Z,3.97
2017-06-23T23:06:13.850Z,3.50
2017-06-23T23:08:46.363Z,3.70
2017-06-23T23:11:20.643Z,3.60
2017-06-23T23:13:56.393Z,3.77
2017-06-23T23:16:32.590Z,4.00
2017-06-23T23:19:06.255Z,3.70
2017-06-23T23:21:43.334Z,3.40
2017-06-23T23:24:18.986Z,4.23
2017-06-23T23:26:54.468Z,3.90
2017-06-23T23:29:29.464Z,4.30
2017-06-23T23:32:05.621Z,4.20
2017-06-23T23:34:41.377Z,3.70
2017-06-23T23:37:14.356Z,3.83
2017-06-23T23:39:49.813Z,3.40
2017-06-23T23:42:21.961Z,3.83
2017-06-23T23:44:56.895Z,3.13
2017-06-23T23:47:31.223Z,3.40
2017-06-23T23:50:03.586Z,3.33
2017-06-23T23:52:43.635Z,3.33
